• Join FlightAware (Why Join?)
  • Login
  • US Flag 
11:37AM EDT


 

Airport Tracker/Info


-or-


 

Live Flight TrackerFlight Track Log ✈ N37CJ ✈ 21-Apr-2013 ✈ KTTA - KCUB

Flight Track Log - Related Links

Times and Time Zones

All times are in EDT time to prevent confusion due to time zone crossing. See the N37CJ flight status page for this flight to view local times or setup timezone preferences in your user account.

Time Position Orientation Groundspeed Altitude Reporting Facility
EDT Latitude Longitude Course Direction KTS MPH feet Rate Location/Type
05:55PM 35.5739 -79.1289 226° Southwest 106 122 1,900  Level Washington Center
05:56PM 35.5522 -79.1561 226° Southwest 108 124 2,700 780 Climbing Washington Center
05:58PM 35.5171 -79.1745 203° Southwest  Level FlightAware Approximate
06:05PM 35.3466 -79.3686 225° Southwest  Level FlightAware Approximate
06:06PM 35.3233 -79.3968 225° Southwest  Level FlightAware Approximate
06:07PM 35.3001 -79.4251 225° Southwest  Level FlightAware Approximate
06:08PM 35.2768 -79.4533 225° Southwest  Level FlightAware Approximate
06:09PM 35.2535 -79.4815 225° Southwest  Level FlightAware Approximate
06:10PM 35.2303 -79.5097 225° Southwest  Level FlightAware Approximate
06:11PM 35.2070 -79.5379 225° Southwest  Level FlightAware Approximate
06:12PM 35.1837 -79.5660 225° Southwest  Level FlightAware Approximate
06:13PM 35.1604 -79.5941 225° Southwest  Level FlightAware Approximate
06:14PM 35.1371 -79.6223 225° Southwest  Level FlightAware Approximate
06:15PM 35.1137 -79.6504 225° Southwest  Level FlightAware Approximate
06:16PM 35.0904 -79.6785 225° Southwest  Level FlightAware Approximate
06:17PM 35.0671 -79.7065 225° Southwest  Level FlightAware Approximate
06:18PM 35.0438 -79.7346 225° Southwest  Level FlightAware Approximate
06:19PM 35.0204 -79.7626 225° Southwest  Level FlightAware Approximate
06:20PM 34.9971 -79.7907 225° Southwest  Level FlightAware Approximate
06:21PM 34.9737 -79.8187 225° Southwest  Level FlightAware Approximate
06:22PM 34.9504 -79.8467 224° Southwest  Level FlightAware Approximate
06:23PM 34.9270 -79.8746 224° Southwest  Level FlightAware Approximate
06:24PM 34.9036 -79.9026 224° Southwest  Level FlightAware Approximate
06:25PM 34.8802 -79.9306 224° Southwest  Level FlightAware Approximate
06:26PM 34.8568 -79.9585 224° Southwest  Level FlightAware Approximate
06:27PM 34.8334 -79.9863 224° Southwest  Level FlightAware Approximate
06:28PM 34.8099 -80.0141 224° Southwest  Level FlightAware Approximate
06:29PM 34.7864 -80.0418 224° Southwest  Level FlightAware Approximate
06:30PM 34.7628 -80.0696 224° Southwest  Level FlightAware Approximate
06:31PM 34.7393 -80.0973 224° Southwest  Level FlightAware Approximate
06:32PM 34.7158 -80.1250 224° Southwest  Level FlightAware Approximate
06:33PM 34.6922 -80.1527 224° Southwest  Level FlightAware Approximate
06:34PM 34.6687 -80.1803 224° Southwest  Level FlightAware Approximate
06:35PM 34.6452 -80.2080 224° Southwest  Level FlightAware Approximate
06:36PM 34.6216 -80.2356 224° Southwest  Level FlightAware Approximate
06:37PM 34.5980 -80.2633 224° Southwest  Level FlightAware Approximate
06:38PM 34.5745 -80.2909 224° Southwest  Level FlightAware Approximate
06:39PM 34.5503 -80.3177 222° Southwest  Level FlightAware Approximate
06:40PM 34.5259 -80.3442 222° Southwest  Level FlightAware Approximate
06:41PM 34.5015 -80.3707 222° Southwest  Level FlightAware Approximate
06:42PM 34.4771 -80.3972 222° Southwest  Level FlightAware Approximate
06:43PM 34.4527 -80.4236 222° Southwest  Level FlightAware Approximate
06:44PM 34.4283 -80.4501 222° Southwest  Level FlightAware Approximate
06:45PM 34.4038 -80.4765 222° Southwest  Level FlightAware Approximate
06:46PM 34.3794 -80.5029 222° Southwest  Level FlightAware Approximate
06:47PM 34.3554 -80.5299 224° Southwest  Level FlightAware Approximate
06:48PM 34.3318 -80.5574 224° Southwest  Level FlightAware Approximate
06:49PM 34.3083 -80.5850 224° Southwest  Level FlightAware Approximate
06:50PM 34.2847 -80.6125 224° Southwest  Level FlightAware Approximate
06:51PM 34.2612 -80.6400 224° Southwest  Level FlightAware Approximate
06:52PM 34.2376 -80.6675 224° Southwest  Level FlightAware Approximate
06:53PM 34.2140 -80.6949 224° Southwest  Level FlightAware Approximate
06:54PM 34.1904 -80.7224 224° Southwest  Level FlightAware Approximate
06:55PM 34.1668 -80.7498 224° Southwest  Level FlightAware Approximate
06:56PM 34.1441 -80.7783 226° Southwest  Level FlightAware Approximate
06:57PM 34.1213 -80.8067 226° Southwest  Level FlightAware Approximate
06:58PM 34.0984 -80.8350 220° Southwest  Level FlightAware Approximate
06:59PM 34.0732 -80.8602 220° Southwest  Level FlightAware Approximate
07:00PM 34.0480 -80.8854 220° Southwest  Level FlightAware Approximate
07:01PM 34.0227 -80.9106 220° Southwest  Level FlightAware Approximate
07:02PM 34.0000 -80.9389 228° Southwest  Level FlightAware Approximate
07:03PM 33.9780 -80.9682 228° Southwest  Level FlightAware Approximate
07:04PM 33.9667 -80.9833 228° Southwest  Level FlightAware Approximate
07:05PM 33.9705 -80.9952 228° Southwest  Level Estimated
07:06PM 33.9705 -80.9952 228° Southwest  Level Estimated
07:07PM 33.9705 -80.9952 228° Southwest  Level Estimated
07:08PM 33.9705 -80.9952 228° Southwest  Level Estimated
07:09PM 33.9705 -80.9952 228° Southwest  Level Estimated
07:10PM 33.9705 -80.9952 228° Southwest  Level Estimated
07:11PM 33.9705 -80.9952 228° Southwest  Level Estimated
07:12PM 33.9705 -80.9952 228° Southwest  Level Estimated
07:13PM 33.9705 -80.9952 228° Southwest  Level Estimated
07:14PM 33.9705 -80.9952 228° Southwest  Level Estimated
07:15PM 33.9705 -80.9952 228° Southwest  Level Estimated
07:16PM 33.9705 -80.9952 228° Southwest  Level Estimated
07:17PM 33.9705 -80.9952 228° Southwest  Level Estimated
07:18PM 33.9705 -80.9952 228° Southwest  Level Estimated
07:19PM 33.9705 -80.9952 228° Southwest  Level Estimated